sensor_id;sensor_type;location;lat;lon;timestamp;temperature;humidity
7694;DHT22;3889;48.162;11.510;2023-02-01T00:00:07;4.20;99.90
7694;DHT22;3889;48.162;11.510;2023-02-01T00:02:35;4.20;99.90
7694;DHT22;3889;48.162;11.510;2023-02-01T00:05:07;4.20;99.90
7694;DHT22;3889;48.162;11.510;2023-02-01T00:07:35;4.10;99.90
7694;DHT22;3889;48.162;11.510;2023-02-01T00:10:04;4.10;99.90
7694;DHT22;3889;48.162;11.510;2023-02-01T00:12:33;4.10;99.90
7694;DHT22;3889;48.162;11.510;2023-02-01T00:15:02;4.10;99.90
7694;DHT22;3889;48.162;11.510;2023-02-01T00:17:30;4.10;99.90
7694;DHT22;3889;48.162;11.510;2023-02-01T00:19:58;4.10;99.90
7694;DHT22;3889;48.162;11.510;2023-02-01T00:22:25;4.10;99.90
7694;DHT22;3889;48.162;11.510;2023-02-01T00:24:53;4.20;99.90
7694;DHT22;3889;48.162;11.510;2023-02-01T00:27:21;4.20;99.90
7694;DHT22;3889;48.162;11.510;2023-02-01T00:29:49;4.20;99.90
7694;DHT22;3889;48.162;11.510;2023-02-01T00:32:18;4.20;99.90
7694;DHT22;3889;48.162;11.510;2023-02-01T00:34:46;4.20;99.90
7694;DHT22;3889;48.162;11.510;2023-02-01T00:37:14;4.20;99.90
7694;DHT22;3889;48.162;11.510;2023-02-01T00:39:42;4.10;99.90
7694;DHT22;3889;48.162;11.510;2023-02-01T00:42:09;4.10;99.90
7694;DHT22;3889;48.162;11.510;2023-02-01T00:44:37;4.10;99.90
7694;DHT22;3889;48.162;11.510;2023-02-01T00:47:05;4.10;99.90
7694;DHT22;3889;48.162;11.510;2023-02-01T00:49:34;4.10;99.90
7694;DHT22;3889;48.162;11.510;2023-02-01T00:52:02;4.00;99.90
7694;DHT22;3889;48.162;11.510;2023-02-01T00:54:30;4.00;99.90
7694;DHT22;3889;48.162;11.510;2023-02-01T00:56:59;3.90;99.90
7694;DHT22;3889;48.162;11.510;2023-02-01T00:59:27;4.00;99.90
7694;DHT22;3889;48.162;11.510;2023-02-01T01:01:54;3.90;99.90
7694;DHT22;3889;48.162;11.510;2023-02-01T01:04:22;3.70;99.90
7694;DHT22;3889;48.162;11.510;2023-02-01T01:06:51;3.80;99.90
7694;DHT22;3889;48.162;11.510;2023-02-01T01:09:19;3.70;99.90
7694;DHT22;3889;48.162;11.510;2023-02-01T01:11:47;3.70;99.90
7694;DHT22;3889;48.162;11.510;2023-02-01T01:14:17;3.70;99.90
7694;DHT22;3889;48.162;11.510;2023-02-01T01:16:45;3.60;99.90
7694;DHT22;3889;48.162;11.510;2023-02-01T01:19:13;3.60;99.90
7694;DHT22;3889;48.162;11.510;2023-02-01T01:21:41;3.70;99.90
7694;DHT22;3889;48.162;11.510;2023-02-01T01:24:10;3.70;99.90
7694;DHT22;3889;48.162;11.510;2023-02-01T01:26:38;3.60;99.90
7694;DHT22;3889;48.162;11.510;2023-02-01T01:29:06;3.70;99.90
7694;DHT22;3889;48.162;11.510;2023-02-01T01:31:33;3.70;99.90
7694;DHT22;3889;48.162;11.510;2023-02-01T01:34:01;3.70;99.90
7694;DHT22;3889;48.162;11.510;2023-02-01T01:36:29;3.70;99.90
7694;DHT22;3889;48.162;11.510;2023-02-01T01:38:57;3.80;99.90
7694;DHT22;3889;48.162;11.510;2023-02-01T01:41:30;3.80;99.90
7694;DHT22;3889;48.162;11.510;2023-02-01T01:44:00;3.80;99.90
7694;DHT22;3889;48.162;11.510;2023-02-01T01:46:29;3.80;99.90
7694;DHT22;3889;48.162;11.510;2023-02-01T01:49:04;3.80;99.90
7694;DHT22;3889;48.162;11.510;2023-02-01T01:51:37;3.70;99.90
7694;DHT22;3889;48.162;11.510;2023-02-01T01:54:09;3.60;99.90
7694;DHT22;3889;48.162;11.510;2023-02-01T01:56:41;3.60;99.90
7694;DHT22;3889;48.162;11.510;2023-02-01T01:59:09;3.60;99.90
7694;DHT22;3889;48.162;11.510;2023-02-01T02:01:37;3.50;99.90
7694;DHT22;3889;48.162;11.510;2023-02-01T02:04:05;3.60;99.90
7694;DHT22;3889;48.162;11.510;2023-02-01T02:06:40;3.60;99.90
7694;DHT22;3889;48.162;11.510;2023-02-01T02:09:12;3.60;99.90
7694;DHT22;3889;48.162;11.510;2023-02-01T02:11:41;3.40;99.90
7694;DHT22;3889;48.162;11.510;2023-02-01T02:14:11;3.40;99.90
7694;DHT22;3889;48.162;11.510;2023-02-01T02:16:47;3.40;99.90
7694;DHT22;3889;48.162;11.510;2023-02-01T02:19:38;3.40;99.90
7694;DHT22;3889;48.162;11.510;2023-02-01T02:22:31;3.40;99.90
7694;DHT22;3889;48.162;11.510;2023-02-01T02:25:26;3.40;99.90
7694;DHT22;3889;48.162;11.510;2023-02-01T02:28:03;3.30;99.90
7694;DHT22;3889;48.162;11.510;2023-02-01T02:30:53;3.40;99.90
7694;DHT22;3889;48.162;11.510;2023-02-01T02:36:21;3.50;99.90
7694;DHT22;3889;48.162;11.510;2023-02-01T02:39:03;3.50;99.90
7694;DHT22;3889;48.162;11.510;2023-02-01T02:41:40;3.50;99.90
7694;DHT22;3889;48.162;11.510;2023-02-01T02:44:35;3.40;99.90
7694;DHT22;3889;48.162;11.510;2023-02-01T02:47:25;3.40;99.90
7694;DHT22;3889;48.162;11.510;2023-02-01T02:50:04;3.40;99.90
7694;DHT22;3889;48.162;11.510;2023-02-01T02:52:54;3.40;99.90
7694;DHT22;3889;48.162;11.510;2023-02-01T02:55:42;3.40;99.90
7694;DHT22;3889;48.162;11.510;2023-02-01T02:58:11;3.40;99.90
7694;DHT22;3889;48.162;11.510;2023-02-01T03:00:57;3.50;99.90
7694;DHT22;3889;48.162;11.510;2023-02-01T03:03:44;3.60;99.90
7694;DHT22;3889;48.162;11.510;2023-02-01T03:06:32;3.50;99.90
7694;DHT22;3889;48.162;11.510;2023-02-01T03:09:04;3.50;99.90
7694;DHT22;3889;48.162;11.510;2023-02-01T03:11:35;3.50;99.90
7694;DHT22;3889;48.162;11.510;2023-02-01T03:14:21;3.50;99.90
7694;DHT22;3889;48.162;11.510;2023-02-01T03:16:54;3.50;99.90
7694;DHT22;3889;48.162;11.510;2023-02-01T03:19:28;3.60;99.90
7694;DHT22;3889;48.162;11.510;2023-02-01T03:22:01;3.60;99.90
7694;DHT22;3889;48.162;11.510;2023-02-01T03:24:32;3.60;99.90
7694;DHT22;3889;48.162;11.510;2023-02-01T03:27:05;3.70;99.90
7694;DHT22;3889;48.162;11.510;2023-02-01T03:29:39;3.70;99.90
7694;DHT22;3889;48.162;11.510;2023-02-01T03:32:07;3.80;99.90
7694;DHT22;3889;48.162;11.510;2023-02-01T03:34:37;3.80;99.90
7694;DHT22;3889;48.162;11.510;2023-02-01T03:37:09;3.80;99.90
7694;DHT22;3889;48.162;11.510;2023-02-01T03:39:41;3.80;99.90
7694;DHT22;3889;48.162;11.510;2023-02-01T03:42:15;3.70;99.90
7694;DHT22;3889;48.162;11.510;2023-02-01T03:44:49;3.70;99.90
7694;DHT22;3889;48.162;11.510;2023-02-01T03:47:21;3.80;99.90
7694;DHT22;3889;48.162;11.510;2023-02-01T03:49:52;3.80;99.90
7694;DHT22;3889;48.162;11.510;2023-02-01T03:52:26;3.80;99.90
7694;DHT22;3889;48.162;11.510;2023-02-01T03:54:57;3.70;99.90
7694;DHT22;3889;48.162;11.510;2023-02-01T03:57:28;3.70;99.90
7694;DHT22;3889;48.162;11.510;2023-02-01T04:00:05;3.80;99.90
7694;DHT22;3889;48.162;11.510;2023-02-01T04:02:33;3.80;99.90
7694;DHT22;3889;48.162;11.510;2023-02-01T04:05:02;3.70;99.90
7694;DHT22;3889;48.162;11.510;2023-02-01T04:07:31;3.80;99.90
7694;DHT22;3889;48.162;11.510;2023-02-01T04:09:58;3.80;99.90
7694;DHT22;3889;48.162;11.510;2023-02-01T04:12:27;3.70;99.90
7694;DHT22;3889;48.162;11.510;2023-02-01T04:14:54;3.80;99.90
7694;DHT22;3889;48.162;11.510;2023-02-01T04:17:22;3.80;99.90
7694;DHT22;3889;48.162;11.510;2023-02-01T04:19:50;3.70;99.90
7694;DHT22;3889;48.162;11.510;2023-02-01T04:22:21;3.80;99.90
7694;DHT22;3889;48.162;11.510;2023-02-01T04:24:50;3.80;99.90
7694;DHT22;3889;48.162;11.510;2023-02-01T04:27:18;3.90;99.90
7694;DHT22;3889;48.162;11.510;2023-02-01T04:29:45;3.80;99.90
7694;DHT22;3889;48.162;11.510;2023-02-01T04:32:13;3.80;99.90
7694;DHT22;3889;48.162;11.510;2023-02-01T04:34:42;3.90;99.90
7694;DHT22;3889;48.162;11.510;2023-02-01T04:37:10;3.80;99.90
7694;DHT22;3889;48.162;11.510;2023-02-01T04:39:38;3.80;99.90
7694;DHT22;3889;48.162;11.510;2023-02-01T04:42:07;3.70;99.90
7694;DHT22;3889;48.162;11.510;2023-02-01T04:44:35;3.80;99.90
7694;DHT22;3889;48.162;11.510;2023-02-01T04:47:06;3.70;99.90
7694;DHT22;3889;48.162;11.510;2023-02-01T04:49:33;3.80;99.90
7694;DHT22;3889;48.162;11.510;2023-02-01T04:52:01;3.80;99.90
7694;DHT22;3889;48.162;11.510;2023-02-01T04:54:29;3.80;99.90
7694;DHT22;3889;48.162;11.510;2023-02-01T04:56:57;3.80;99.90
7694;DHT22;3889;48.162;11.510;2023-02-01T04:59:26;3.80;99.90
7694;DHT22;3889;48.162;11.510;2023-02-01T05:01:55;3.70;99.90
7694;DHT22;3889;48.162;11.510;2023-02-01T05:04:23;3.60;99.90
7694;DHT22;3889;48.162;11.510;2023-02-01T05:06:51;3.70;99.90
7694;DHT22;3889;48.162;11.510;2023-02-01T05:09:19;3.70;99.90
7694;DHT22;3889;48.162;11.510;2023-02-01T05:11:48;3.80;99.90
7694;DHT22;3889;48.162;11.510;2023-02-01T05:14:35;3.80;99.90
7694;DHT22;3889;48.162;11.510;2023-02-01T05:17:03;3.90;99.90
7694;DHT22;3889;48.162;11.510;2023-02-01T05:19:30;3.80;99.90
7694;DHT22;3889;48.162;11.510;2023-02-01T05:21:58;3.80;99.90
7694;DHT22;3889;48.162;11.510;2023-02-01T05:24:26;3.80;99.90
7694;DHT22;3889;48.162;11.510;2023-02-01T05:26:54;3.80;99.90
7694;DHT22;3889;48.162;11.510;2023-02-01T05:29:22;3.70;99.90
7694;DHT22;3889;48.162;11.510;2023-02-01T05:31:51;3.70;99.90
7694;DHT22;3889;48.162;11.510;2023-02-01T05:34:19;3.80;99.90
7694;DHT22;3889;48.162;11.510;2023-02-01T05:36:47;3.70;99.90
7694;DHT22;3889;48.162;11.510;2023-02-01T05:39:15;3.80;99.90
7694;DHT22;3889;48.162;11.510;2023-02-01T05:41:42;3.80;99.90
7694;DHT22;3889;48.162;11.510;2023-02-01T05:44:10;3.90;99.90
7694;DHT22;3889;48.162;11.510;2023-02-01T05:46:38;3.80;99.90
7694;DHT22;3889;48.162;11.510;2023-02-01T05:49:08;3.80;99.90
7694;DHT22;3889;48.162;11.510;2023-02-01T05:51:36;3.80;99.90
7694;DHT22;3889;48.162;11.510;2023-02-01T05:54:04;3.90;99.90
7694;DHT22;3889;48.162;11.510;2023-02-01T05:56:31;3.80;99.90
7694;DHT22;3889;48.162;11.510;2023-02-01T05:58:59;3.80;99.90
7694;DHT22;3889;48.162;11.510;2023-02-01T06:01:30;3.80;99.90
7694;DHT22;3889;48.162;11.510;2023-02-01T06:03:58;3.80;99.90
7694;DHT22;3889;48.162;11.510;2023-02-01T06:06:27;3.70;99.90
7694;DHT22;3889;48.162;11.510;2023-02-01T06:08:55;3.90;99.90
7694;DHT22;3889;48.162;11.510;2023-02-01T06:11:23;4.00;99.90
7694;DHT22;3889;48.162;11.510;2023-02-01T06:13:58;4.10;99.90
7694;DHT22;3889;48.162;11.510;2023-02-01T06:16:26;3.90;99.90
7694;DHT22;3889;48.162;11.510;2023-02-01T06:18:54;3.90;99.90
7694;DHT22;3889;48.162;11.510;2023-02-01T06:21:22;3.90;99.90
7694;DHT22;3889;48.162;11.510;2023-02-01T06:23:52;4.00;99.90
7694;DHT22;3889;48.162;11.510;2023-02-01T06:26:20;3.90;99.90
7694;DHT22;3889;48.162;11.510;2023-02-01T06:28:49;3.90;99.90
7694;DHT22;3889;48.162;11.510;2023-02-01T06:31:17;3.90;99.90
7694;DHT22;3889;48.162;11.510;2023-02-01T06:33:45;3.90;99.90
7694;DHT22;3889;48.162;11.510;2023-02-01T06:36:13;3.90;99.90
7694;DHT22;3889;48.162;11.510;2023-02-01T06:38:42;3.90;99.90
7694;DHT22;3889;48.162;11.510;2023-02-01T06:41:11;3.90;99.90
7694;DHT22;3889;48.162;11.510;2023-02-01T06:43:39;4.00;99.90
7694;DHT22;3889;48.162;11.510;2023-02-01T06:46:09;3.90;99.90
7694;DHT22;3889;48.162;11.510;2023-02-01T06:48:39;4.00;99.90
7694;DHT22;3889;48.162;11.510;2023-02-01T06:51:22;3.90;99.90
7694;DHT22;3889;48.162;11.510;2023-02-01T06:53:51;3.90;99.90
7694;DHT22;3889;48.162;11.510;2023-02-01T06:56:21;4.00;99.90
7694;DHT22;3889;48.162;11.510;2023-02-01T06:58:49;4.00;99.90
7694;DHT22;3889;48.162;11.510;2023-02-01T07:01:17;4.10;99.90
7694;DHT22;3889;48.162;11.510;2023-02-01T07:03:47;4.00;99.90
7694;DHT22;3889;48.162;11.510;2023-02-01T07:06:17;4.00;99.90
7694;DHT22;3889;48.162;11.510;2023-02-01T07:08:45;4.00;99.90
7694;DHT22;3889;48.162;11.510;2023-02-01T07:11:14;4.00;99.90
7694;DHT22;3889;48.162;11.510;2023-02-01T07:13:44;4.10;99.90
7694;DHT22;3889;48.162;11.510;2023-02-01T07:16:14;4.00;99.90
7694;DHT22;3889;48.162;11.510;2023-02-01T07:18:42;4.10;99.90
7694;DHT22;3889;48.162;11.510;2023-02-01T07:21:10;4.20;99.90
7694;DHT22;3889;48.162;11.510;2023-02-01T07:23:38;4.10;99.90
7694;DHT22;3889;48.162;11.510;2023-02-01T07:26:07;4.10;99.90
7694;DHT22;3889;48.162;11.510;2023-02-01T07:28:36;4.20;99.90
7694;DHT22;3889;48.162;11.510;2023-02-01T07:31:08;4.00;99.90
7694;DHT22;3889;48.162;11.510;2023-02-01T07:33:36;4.10;99.90
7694;DHT22;3889;48.162;11.510;2023-02-01T07:36:05;4.00;99.90
7694;DHT22;3889;48.162;11.510;2023-02-01T07:38:33;4.10;99.90
7694;DHT22;3889;48.162;11.510;2023-02-01T07:41:03;4.10;99.90
7694;DHT22;3889;48.162;11.510;2023-02-01T07:43:32;4.10;99.90
7694;DHT22;3889;48.162;11.510;2023-02-01T07:46:00;4.20;99.90
7694;DHT22;3889;48.162;11.510;2023-02-01T07:48:30;4.10;99.90
7694;DHT22;3889;48.162;11.510;2023-02-01T07:51:00;4.10;99.90
7694;DHT22;3889;48.162;11.510;2023-02-01T07:53:29;4.10;99.90
7694;DHT22;3889;48.162;11.510;2023-02-01T07:55:58;4.20;99.90
7694;DHT22;3889;48.162;11.510;2023-02-01T07:58:26;4.20;99.90
7694;DHT22;3889;48.162;11.510;2023-02-01T08:00:55;4.20;99.90
7694;DHT22;3889;48.162;11.510;2023-02-01T08:03:42;4.20;99.90
7694;DHT22;3889;48.162;11.510;2023-02-01T08:06:10;4.30;99.90
7694;DHT22;3889;48.162;11.510;2023-02-01T08:08:38;4.40;99.90
7694;DHT22;3889;48.162;11.510;2023-02-01T08:11:06;4.40;99.90
7694;DHT22;3889;48.162;11.510;2023-02-01T08:13:34;4.40;99.90
7694;DHT22;3889;48.162;11.510;2023-02-01T08:16:05;4.50;99.90
7694;DHT22;3889;48.162;11.510;2023-02-01T08:18:33;4.50;99.90
7694;DHT22;3889;48.162;11.510;2023-02-01T08:21:07;4.60;99.90
7694;DHT22;3889;48.162;11.510;2023-02-01T08:23:36;4.60;99.90
7694;DHT22;3889;48.162;11.510;2023-02-01T08:26:08;4.60;99.90
7694;DHT22;3889;48.162;11.510;2023-02-01T08:28:37;4.60;99.90
7694;DHT22;3889;48.162;11.510;2023-02-01T08:31:07;4.60;99.90
7694;DHT22;3889;48.162;11.510;2023-02-01T08:33:35;4.60;99.90
7694;DHT22;3889;48.162;11.510;2023-02-01T08:36:07;4.60;99.90
7694;DHT22;3889;48.162;11.510;2023-02-01T08:38:35;4.80;99.90
7694;DHT22;3889;48.162;11.510;2023-02-01T08:41:05;4.70;99.90
7694;DHT22;3889;48.162;11.510;2023-02-01T08:43:33;4.90;99.90
7694;DHT22;3889;48.162;11.510;2023-02-01T08:46:01;4.90;99.90
7694;DHT22;3889;48.162;11.510;2023-02-01T08:48:29;4.90;99.90
7694;DHT22;3889;48.162;11.510;2023-02-01T08:50:57;5.00;99.90
7694;DHT22;3889;48.162;11.510;2023-02-01T08:53:29;5.00;99.90
7694;DHT22;3889;48.162;11.510;2023-02-01T08:55:57;5.00;99.90
7694;DHT22;3889;48.162;11.510;2023-02-01T08:58:25;5.00;99.90
7694;DHT22;3889;48.162;11.510;2023-02-01T09:00:53;5.00;99.90
7694;DHT22;3889;48.162;11.510;2023-02-01T09:03:21;5.00;99.90
7694;DHT22;3889;48.162;11.510;2023-02-01T09:05:49;5.00;99.90
7694;DHT22;3889;48.162;11.510;2023-02-01T09:08:19;5.10;99.90
7694;DHT22;3889;48.162;11.510;2023-02-01T09:10:49;5.10;99.90
7694;DHT22;3889;48.162;11.510;2023-02-01T09:13:16;5.20;99.90
7694;DHT22;3889;48.162;11.510;2023-02-01T09:15:44;5.20;99.90
7694;DHT22;3889;48.162;11.510;2023-02-01T09:18:12;5.20;99.90
7694;DHT22;3889;48.162;11.510;2023-02-01T09:20:40;5.20;99.90
7694;DHT22;3889;48.162;11.510;2023-02-01T09:23:08;5.30;99.90
7694;DHT22;3889;48.162;11.510;2023-02-01T09:25:37;5.20;99.90
7694;DHT22;3889;48.162;11.510;2023-02-01T09:28:06;5.30;99.90
7694;DHT22;3889;48.162;11.510;2023-02-01T09:30:36;5.40;99.90
7694;DHT22;3889;48.162;11.510;2023-02-01T09:33:04;5.40;99.90
7694;DHT22;3889;48.162;11.510;2023-02-01T09:35:32;5.30;99.90
7694;DHT22;3889;48.162;11.510;2023-02-01T09:38:00;5.40;99.90
7694;DHT22;3889;48.162;11.510;2023-02-01T09:40:28;5.20;99.90
7694;DHT22;3889;48.162;11.510;2023-02-01T09:43:09;5.40;99.90
7694;DHT22;3889;48.162;11.510;2023-02-01T09:45:44;5.50;99.90
7694;DHT22;3889;48.162;11.510;2023-02-01T09:48:17;5.60;99.90
7694;DHT22;3889;48.162;11.510;2023-02-01T09:50:50;5.60;99.90
7694;DHT22;3889;48.162;11.510;2023-02-01T09:53:23;5.70;99.90
7694;DHT22;3889;48.162;11.510;2023-02-01T09:55:55;5.70;99.90
7694;DHT22;3889;48.162;11.510;2023-02-01T09:58:29;5.70;99.90
7694;DHT22;3889;48.162;11.510;2023-02-01T10:01:00;5.50;99.90
7694;DHT22;3889;48.162;11.510;2023-02-01T10:03:30;5.50;99.90
7694;DHT22;3889;48.162;11.510;2023-02-01T10:06:28;5.60;99.90
7694;DHT22;3889;48.162;11.510;2023-02-01T10:09:15;5.70;99.90
7694;DHT22;3889;48.162;11.510;2023-02-01T10:11:54;5.70;99.90
7694;DHT22;3889;48.162;11.510;2023-02-01T10:14:51;5.60;99.90
7694;DHT22;3889;48.162;11.510;2023-02-01T10:17:36;5.50;99.90
7694;DHT22;3889;48.162;11.510;2023-02-01T10:20:15;5.50;99.90
7694;DHT22;3889;48.162;11.510;2023-02-01T10:22:46;5.40;99.90
7694;DHT22;3889;48.162;11.510;2023-02-01T10:25:37;5.50;99.90
7694;DHT22;3889;48.162;11.510;2023-02-01T10:28:14;5.50;99.90
7694;DHT22;3889;48.162;11.510;2023-02-01T10:30:46;5.60;99.90
7694;DHT22;3889;48.162;11.510;2023-02-01T10:33:17;5.50;99.90
7694;DHT22;3889;48.162;11.510;2023-02-01T10:35:46;5.60;99.90
7694;DHT22;3889;48.162;11.510;2023-02-01T10:38:25;5.50;99.90
7694;DHT22;3889;48.162;11.510;2023-02-01T10:40:56;5.50;99.90
7694;DHT22;3889;48.162;11.510;2023-02-01T10:43:27;5.60;99.90
7694;DHT22;3889;48.162;11.510;2023-02-01T10:45:57;5.60;99.90
7694;DHT22;3889;48.162;11.510;2023-02-01T10:48:25;5.60;99.90
7694;DHT22;3889;48.162;11.510;2023-02-01T10:50:58;5.60;99.90
7694;DHT22;3889;48.162;11.510;2023-02-01T10:53:31;5.70;99.90
7694;DHT22;3889;48.162;11.510;2023-02-01T10:56:06;5.70;99.90
7694;DHT22;3889;48.162;11.510;2023-02-01T10:58:36;5.70;99.90
7694;DHT22;3889;48.162;11.510;2023-02-01T11:01:16;5.60;99.90
7694;DHT22;3889;48.162;11.510;2023-02-01T11:03:52;5.60;99.90
7694;DHT22;3889;48.162;11.510;2023-02-01T11:06:29;5.60;99.90
7694;DHT22;3889;48.162;11.510;2023-02-01T11:09:00;5.60;99.90
7694;DHT22;3889;48.162;11.510;2023-02-01T11:11:28;5.70;99.90
7694;DHT22;3889;48.162;11.510;2023-02-01T11:13:57;5.70;99.90
7694;DHT22;3889;48.162;11.510;2023-02-01T11:16:34;5.80;99.90
7694;DHT22;3889;48.162;11.510;2023-02-01T11:19:02;5.80;99.90
7694;DHT22;3889;48.162;11.510;2023-02-01T11:21:31;5.70;99.90
7694;DHT22;3889;48.162;11.510;2023-02-01T11:24:01;5.70;99.90
7694;DHT22;3889;48.162;11.510;2023-02-01T11:26:30;5.60;99.90
7694;DHT22;3889;48.162;11.510;2023-02-01T11:29:03;5.60;99.90
7694;DHT22;3889;48.162;11.510;2023-02-01T11:31:34;5.40;99.90
7694;DHT22;3889;48.162;11.510;2023-02-01T11:34:07;5.40;99.90
7694;DHT22;3889;48.162;11.510;2023-02-01T11:36:36;5.40;99.90
7694;DHT22;3889;48.162;11.510;2023-02-01T11:39:17;5.30;99.90
7694;DHT22;3889;48.162;11.510;2023-02-01T11:41:57;5.20;99.90
7694;DHT22;3889;48.162;11.510;2023-02-01T11:44:31;5.30;99.90
7694;DHT22;3889;48.162;11.510;2023-02-01T11:47:22;5.20;99.90
7694;DHT22;3889;48.162;11.510;2023-02-01T11:49:52;5.20;99.90
7694;DHT22;3889;48.162;11.510;2023-02-01T11:52:36;5.10;99.90
7694;DHT22;3889;48.162;11.510;2023-02-01T11:55:20;5.10;99.90
7694;DHT22;3889;48.162;11.510;2023-02-01T11:58:03;5.10;99.90
7694;DHT22;3889;48.162;11.510;2023-02-01T12:00:47;5.20;99.90
7694;DHT22;3889;48.162;11.510;2023-02-01T12:03:52;5.20;99.90
7694;DHT22;3889;48.162;11.510;2023-02-01T12:06:31;5.20;99.90
7694;DHT22;3889;48.162;11.510;2023-02-01T12:09:09;5.10;99.90
7694;DHT22;3889;48.162;11.510;2023-02-01T12:11:53;5.10;99.90
7694;DHT22;3889;48.162;11.510;2023-02-01T12:14:36;5.20;99.90
7694;DHT22;3889;48.162;11.510;2023-02-01T12:17:51;5.30;99.90
7694;DHT22;3889;48.162;11.510;2023-02-01T12:20:34;5.30;99.90
7694;DHT22;3889;48.162;11.510;2023-02-01T12:23:18;5.20;99.90
7694;DHT22;3889;48.162;11.510;2023-02-01T12:26:00;5.20;99.90
7694;DHT22;3889;48.162;11.510;2023-02-01T12:28:48;5.20;99.90
7694;DHT22;3889;48.162;11.510;2023-02-01T12:31:33;5.10;99.90
7694;DHT22;3889;48.162;11.510;2023-02-01T12:34:22;5.10;99.90
7694;DHT22;3889;48.162;11.510;2023-02-01T12:36:58;5.00;99.90
7694;DHT22;3889;48.162;11.510;2023-02-01T12:39:38;5.00;99.90
7694;DHT22;3889;48.162;11.510;2023-02-01T12:42:11;5.00;99.90
7694;DHT22;3889;48.162;11.510;2023-02-01T12:44:47;5.00;99.90
7694;DHT22;3889;48.162;11.510;2023-02-01T12:47:21;5.00;99.90
7694;DHT22;3889;48.162;11.510;2023-02-01T12:49:57;5.00;99.90
7694;DHT22;3889;48.162;11.510;2023-02-01T12:52:32;5.00;99.90
7694;DHT22;3889;48.162;11.510;2023-02-01T12:55:08;5.10;99.90
7694;DHT22;3889;48.162;11.510;2023-02-01T12:57:40;5.10;99.90
7694;DHT22;3889;48.162;11.510;2023-02-01T13:00:17;5.10;99.90
7694;DHT22;3889;48.162;11.510;2023-02-01T13:02:54;5.10;99.90
7694;DHT22;3889;48.162;11.510;2023-02-01T13:05:28;5.10;99.90
7694;DHT22;3889;48.162;11.510;2023-02-01T13:08:02;5.20;99.90
7694;DHT22;3889;48.162;11.510;2023-02-01T13:10:34;5.20;99.90
7694;DHT22;3889;48.162;11.510;2023-02-01T13:13:11;5.20;99.90
7694;DHT22;3889;48.162;11.510;2023-02-01T13:15:44;5.20;99.90
7694;DHT22;3889;48.162;11.510;2023-02-01T13:18:17;5.30;99.90
7694;DHT22;3889;48.162;11.510;2023-02-01T13:20:50;5.30;99.90
7694;DHT22;3889;48.162;11.510;2023-02-01T13:23:25;5.30;99.90
7694;DHT22;3889;48.162;11.510;2023-02-01T13:25:54;5.30;99.90
7694;DHT22;3889;48.162;11.510;2023-02-01T13:28:26;5.20;99.90
7694;DHT22;3889;48.162;11.510;2023-02-01T13:31:13;5.20;99.90
7694;DHT22;3889;48.162;11.510;2023-02-01T13:34:15;5.20;99.90
7694;DHT22;3889;48.162;11.510;2023-02-01T13:36:58;5.20;99.90
7694;DHT22;3889;48.162;11.510;2023-02-01T13:39:48;5.20;99.90
7694;DHT22;3889;48.162;11.510;2023-02-01T13:42:21;5.10;99.90
7694;DHT22;3889;48.162;11.510;2023-02-01T13:44:52;5.10;99.90
7694;DHT22;3889;48.162;11.510;2023-02-01T13:47:26;5.10;99.90
7694;DHT22;3889;48.162;11.510;2023-02-01T13:49:56;5.10;99.90
7694;DHT22;3889;48.162;11.510;2023-02-01T13:52:28;5.10;99.90
7694;DHT22;3889;48.162;11.510;2023-02-01T13:55:15;5.10;99.90
7694;DHT22;3889;48.162;11.510;2023-02-01T13:57:44;5.10;99.90
7694;DHT22;3889;48.162;11.510;2023-02-01T14:00:27;5.00;99.90
7694;DHT22;3889;48.162;11.510;2023-02-01T14:03:08;5.10;99.90
7694;DHT22;3889;48.162;11.510;2023-02-01T14:06:00;5.00;99.90
7694;DHT22;3889;48.162;11.510;2023-02-01T14:08:46;5.00;99.90
7694;DHT22;3889;48.162;11.510;2023-02-01T14:11:37;5.00;99.90
7694;DHT22;3889;48.162;11.510;2023-02-01T14:14:38;5.00;99.90
7694;DHT22;3889;48.162;11.510;2023-02-01T14:17:33;5.00;99.90
7694;DHT22;3889;48.162;11.510;2023-02-01T14:23:12;5.00;99.90
7694;DHT22;3889;48.162;11.510;2023-02-01T14:25:41;5.00;99.90
7694;DHT22;3889;48.162;11.510;2023-02-01T14:28:24;5.00;99.90
7694;DHT22;3889;48.162;11.510;2023-02-01T14:30:54;4.90;99.90
7694;DHT22;3889;48.162;11.510;2023-02-01T14:33:25;5.00;99.90
7694;DHT22;3889;48.162;11.510;2023-02-01T14:36:05;5.00;99.90
7694;DHT22;3889;48.162;11.510;2023-02-01T14:38:36;5.00;99.90
7694;DHT22;3889;48.162;11.510;2023-02-01T14:41:31;5.00;99.90
7694;DHT22;3889;48.162;11.510;2023-02-01T14:44:26;4.90;99.90
7694;DHT22;3889;48.162;11.510;2023-02-01T14:47:05;4.90;99.90
7694;DHT22;3889;48.162;11.510;2023-02-01T14:49:37;4.90;99.90
7694;DHT22;3889;48.162;11.510;2023-02-01T14:52:11;4.90;99.90
7694;DHT22;3889;48.162;11.510;2023-02-01T14:54:41;5.00;99.90
7694;DHT22;3889;48.162;11.510;2023-02-01T14:57:15;5.00;99.90
7694;DHT22;3889;48.162;11.510;2023-02-01T14:59:45;5.00;99.90
7694;DHT22;3889;48.162;11.510;2023-02-01T15:02:21;5.00;99.90
7694;DHT22;3889;48.162;11.510;2023-02-01T15:04:54;5.00;99.90
7694;DHT22;3889;48.162;11.510;2023-02-01T15:07:23;5.00;99.90
7694;DHT22;3889;48.162;11.510;2023-02-01T15:09:53;5.00;99.90
7694;DHT22;3889;48.162;11.510;2023-02-01T15:12:24;5.00;99.90
7694;DHT22;3889;48.162;11.510;2023-02-01T15:15:11;5.00;99.90
7694;DHT22;3889;48.162;11.510;2023-02-01T15:17:40;4.90;99.90
7694;DHT22;3889;48.162;11.510;2023-02-01T15:20:13;5.00;99.90
7694;DHT22;3889;48.162;11.510;2023-02-01T15:22:53;4.90;99.90
7694;DHT22;3889;48.162;11.510;2023-02-01T15:25:22;4.90;99.90
7694;DHT22;3889;48.162;11.510;2023-02-01T15:27:51;4.90;99.90
7694;DHT22;3889;48.162;11.510;2023-02-01T15:30:23;4.90;99.90
7694;DHT22;3889;48.162;11.510;2023-02-01T15:33:04;4.70;99.90
7694;DHT22;3889;48.162;11.510;2023-02-01T15:35:39;4.70;99.90
7694;DHT22;3889;48.162;11.510;2023-02-01T15:38:34;4.70;99.90
7694;DHT22;3889;48.162;11.510;2023-02-01T15:41:06;4.70;99.90
7694;DHT22;3889;48.162;11.510;2023-02-01T15:43:37;4.60;99.90
7694;DHT22;3889;48.162;11.510;2023-02-01T15:46:10;4.60;99.90
7694;DHT22;3889;48.162;11.510;2023-02-01T15:48:45;4.60;99.90
7694;DHT22;3889;48.162;11.510;2023-02-01T15:51:19;4.60;99.90
7694;DHT22;3889;48.162;11.510;2023-02-01T15:53:51;4.50;99.90
7694;DHT22;3889;48.162;11.510;2023-02-01T15:56:28;4.60;99.90
7694;DHT22;3889;48.162;11.510;2023-02-01T15:58:59;4.60;99.90
7694;DHT22;3889;48.162;11.510;2023-02-01T16:01:29;4.60;99.90
7694;DHT22;3889;48.162;11.510;2023-02-01T16:04:13;4.60;99.90
7694;DHT22;3889;48.162;11.510;2023-02-01T16:06:48;4.60;99.90
7694;DHT22;3889;48.162;11.510;2023-02-01T16:09:17;4.60;99.90
7694;DHT22;3889;48.162;11.510;2023-02-01T16:11:54;4.50;99.90
7694;DHT22;3889;48.162;11.510;2023-02-01T16:14:23;4.40;99.90
7694;DHT22;3889;48.162;11.510;2023-02-01T16:16:54;4.40;99.90
7694;DHT22;3889;48.162;11.510;2023-02-01T16:19:22;4.40;99.90
7694;DHT22;3889;48.162;11.510;2023-02-01T16:21:54;4.40;99.90
7694;DHT22;3889;48.162;11.510;2023-02-01T16:24:22;4.40;99.90
7694;DHT22;3889;48.162;11.510;2023-02-01T16:26:52;4.40;99.90
7694;DHT22;3889;48.162;11.510;2023-02-01T16:29:20;4.40;99.90
7694;DHT22;3889;48.162;11.510;2023-02-01T16:31:48;4.40;99.90
7694;DHT22;3889;48.162;11.510;2023-02-01T16:34:18;4.40;99.90
7694;DHT22;3889;48.162;11.510;2023-02-01T16:36:47;4.40;99.90
7694;DHT22;3889;48.162;11.510;2023-02-01T16:39:18;4.40;99.90
7694;DHT22;3889;48.162;11.510;2023-02-01T16:41:46;4.40;99.90
7694;DHT22;3889;48.162;11.510;2023-02-01T16:44:14;4.40;99.90